GMMN/CMN METAR and TAF weather

Enter ICAO airport designator
Station Type Date Time Source
GMMN METAR 2021/07/26 13:30 UTC NOAA

GMMN 261330Z 01015KT 9999 SCT030 27/17 Q1015 NOSIG


Station Type Date Time Source
GMMN Decoded METAR 2021/07/26 13:30 UTC NOAA

Nouasseur, Morocco (GMMN) 33-22N 007-35W 206M
Jul 26, 2021 - 09:30 AM EDT / 2021.07.26 1330 UTC
Wind: from the N (010 degrees) at 17 MPH (15 KT):0
Visibility: greater than 7 mile(s):0
Sky conditions: partly cloudy
Temperature: 80 F (27 C)
Dew Point: 62 F (17 C)
Relative Humidity: 54%
Pressure (altimeter): 29.97 in. Hg (1015 hPa)
ob: GMMN 261330Z 01015KT 9999 SCT030 27/17 Q1015 NOSIG
cycle: 13

Station Type Date Time Source
GMMN TAF 2021/07/26 12:18 UTC NOAA

TAF GMMN 261100Z 2612/2718 36010KT 9999 SCT030
TEMPO 2614/2618 36016KT
BECMG 2620/2622 36008KT 9999 BKN013
BECMG 2709/2712 36010KT CAVOK

Example: see airport list